KALW/ALW METAR and TAF weather

Enter ICAO airport designator
Station Type Date Time Source
KALW METAR 2020/07/15 00:53 UTC NOAA

KALW 150053Z 29007KT 10SM CLR 30/00 A3002 RMK AO2 SLP159 T03000000


Station Type Date Time Source
KALW Decoded METAR 2020/07/15 00:53 UTC NOAA

WALLA WALLA REGIONAL AIRPORT, WA, United States (KALW) 46-06N 118-17W 363M
Jul 14, 2020 - 08:53 PM EDT / 2020.07.15 0053 UTC
Wind: from the WNW (290 degrees) at 8 MPH (7 KT):0
Visibility: 10 mile(s):0
Sky conditions: clear
Temperature: 86.0 F (30.0 C)
Dew Point: 32.0 F (0.0 C)
Relative Humidity: 14%
Pressure (altimeter): 30.02 in. Hg (1016 hPa)
ob: KALW 150053Z 29007KT 10SM CLR 30/00 A3002 RMK AO2 SLP159 T03000000
cycle: 1

Station Type Date Time Source
KALW TAF 2020/07/14 18:39 UTC NOAA

TAF KALW 141737Z 1418/1518 VRB05KT P6SM SKC
FM150400 15007KT P6SM SKC
FM151600 23007KT P6SM SKC

Example: see airport list